Time;durP1;ratioP1;P1;durP2;ratioP2;P2;SDS_P1;SDS_P2;PMS_P1;PMS_P2;Temp;Humidity;BMP_temperature;BMP_pressure;BME280_temperature;BME280_humidity;BME280_pressure;Samples;Min_cycle;Max_cycle;Signal;HPM_P1;HPM_P2
2023/12/20 00:02:06;;;;;;;0.60;0.60;;;;;;;3.71;100.00;99851.25;5072902;28;20258;-71
2023/12/20 00:04:33;;;;;;;1.30;1.30;;;;;;;3.63;100.00;99842.75;5068543;28;20238;-70
2023/12/20 00:06:59;;;;;;;1.13;1.13;;;;;;;3.68;100.00;99856.31;5073701;28;20266;-71
2023/12/20 00:09:26;;;;;;;0.80;0.80;;;;;;;3.67;100.00;99852.06;5070934;28;20205;-70
2023/12/20 00:11:53;;;;;;;0.73;0.73;;;;;;;3.66;100.00;99853.75;5071134;28;20684;-71
2023/12/20 00:14:21;;;;;;;0.60;0.60;;;;;;;3.66;100.00;99852.88;5071452;28;20283;-71
2023/12/20 00:16:48;;;;;;;0.60;0.60;;;;;;;3.58;100.00;99831.75;5066888;28;20278;-70
2023/12/20 00:19:15;;;;;;;1.13;1.03;;;;;;;3.65;100.00;99846.16;5070715;28;20715;-70
2023/12/20 00:21:42;;;;;;;1.20;1.20;;;;;;;3.62;100.00;99843.56;5070816;28;20192;-70
2023/12/20 00:24:08;;;;;;;1.20;1.20;;;;;;;3.51;100.00;99822.41;5073412;28;20227;-70
2023/12/20 00:26:35;;;;;;;0.90;0.90;;;;;;;3.61;100.00;99839.34;5070998;28;20279;-70
2023/12/20 00:29:02;;;;;;;1.03;1.03;;;;;;;3.60;100.00;99827.50;5070899;28;20212;-70
2023/12/20 00:31:30;;;;;;;0.60;0.60;;;;;;;3.60;100.00;99830.06;5070612;28;20241;-70
2023/12/20 00:33:57;;;;;;;0.50;0.50;;;;;;;3.61;100.00;99821.63;5073499;28;20261;-70
2023/12/20 00:36:23;;;;;;;0.53;0.53;;;;;;;3.63;100.00;99817.38;5072927;28;20210;-70
2023/12/20 00:38:51;;;;;;;1.70;0.73;;;;;;;3.61;100.00;99814.00;5070564;28;20200;-70
2023/12/20 00:41:18;;;;;;;0.87;0.87;;;;;;;3.59;100.00;99814.00;5070834;28;20210;-70
2023/12/20 00:43:45;;;;;;;0.90;0.90;;;;;;;3.57;100.00;99807.22;5070506;28;20254;-70
2023/12/20 00:46:11;;;;;;;1.23;1.13;;;;;;;3.55;100.00;99798.78;5070677;28;20227;-70
2023/12/20 00:48:41;;;;;;;0.70;0.70;;;;;;;3.56;100.00;99805.53;5070079;28;20639;-70
2023/12/20 00:51:08;;;;;;;1.50;1.20;;;;;;;3.53;100.00;99803.81;5073008;28;20259;-70
2023/12/20 00:53:35;;;;;;;1.20;1.20;;;;;;;3.53;100.00;99800.44;5071325;28;20246;-69
2023/12/20 00:56:02;;;;;;;0.67;0.67;;;;;;;3.52;100.00;99798.78;5071630;28;20258;-70
2023/12/20 00:58:28;;;;;;;0.77;0.77;;;;;;;3.47;100.00;99790.28;5071551;28;20257;-69
2023/12/20 01:00:55;;;;;;;1.60;1.60;;;;;;;3.49;100.00;99798.75;5075597;28;20203;-69
2023/12/20 01:03:22;;;;;;;1.07;1.07;;;;;;;3.49;100.00;99798.75;5075459;28;20642;-70
2023/12/20 01:05:50;;;;;;;0.83;0.83;;;;;;;3.49;100.00;99791.16;5075012;28;20257;-69
2023/12/20 01:08:17;;;;;;;1.03;1.03;;;;;;;3.46;100.00;99791.09;5075829;28;20707;-70
2023/12/20 01:10:43;;;;;;;1.27;1.17;;;;;;;3.41;100.00;99788.56;5074557;28;20638;-70
2023/12/20 01:13:10;;;;;;;1.07;0.93;;;;;;;3.42;100.00;99787.75;5077031;28;20192;-70
2023/12/20 01:15:37;;;;;;;1.37;1.37;;;;;;;3.39;100.00;99791.94;5074371;28;20204;-70
2023/12/20 01:18:04;;;;;;;1.27;1.27;;;;;;;3.27;100.00;99774.97;5074052;28;20258;-70
2023/12/20 01:20:31;;;;;;;1.77;1.77;;;;;;;3.16;100.00;99769.88;5074345;28;20634;-69
2023/12/20 01:22:59;;;;;;;1.30;1.30;;;;;;;3.03;100.00;99765.59;5075590;28;20266;-69
2023/12/20 01:25:25;;;;;;;0.77;0.77;;;;;;;2.93;100.00;99757.91;5074266;28;20270;-70
2023/12/20 01:27:52;;;;;;;1.40;1.40;;;;;;;2.85;100.00;99752.78;5073843;28;20220;-69
2023/12/20 01:30:19;;;;;;;0.70;0.70;;;;;;;2.74;100.00;99731.63;5073982;28;20746;-70
2023/12/20 01:32:46;;;;;;;0.90;0.90;;;;;;;2.88;100.00;99749.41;5076039;28;20250;-70
2023/12/20 01:35:13;;;;;;;1.53;1.43;;;;;;;2.86;100.00;99744.38;5076286;28;20250;-70
2023/12/20 01:37:40;;;;;;;0.73;0.73;;;;;;;2.87;100.00;99738.47;5073824;28;20199;-70
2023/12/20 01:40:09;;;;;;;0.50;0.50;;;;;;;2.88;100.00;99740.16;5073634;28;20200;-70
2023/12/20 01:42:36;;;;;;;1.17;1.17;;;;;;;2.92;100.00;99744.41;5076234;28;20196;-70
2023/12/20 01:45:03;;;;;;;0.87;0.87;;;;;;;2.75;100.00;99700.41;5073086;28;20204;-70
2023/12/20 01:47:30;;;;;;;0.57;0.57;;;;;;;2.96;100.00;99730.06;5070095;28;20223;-70
2023/12/20 01:49:57;;;;;;;0.60;0.60;;;;;;;2.96;100.00;99723.34;5073490;28;20200;-70
2023/12/20 01:52:26;;;;;;;0.60;0.60;;;;;;;2.99;100.00;99720.81;5076790;28;20263;-69
2023/12/20 01:54:54;;;;;;;1.40;1.40;;;;;;;3.01;100.00;99724.19;5073509;28;20204;-70
2023/12/20 01:57:22;;;;;;;0.50;0.50;;;;;;;2.97;100.00;99714.88;5073201;28;20193;-70
2023/12/20 01:59:49;;;;;;;1.10;1.03;;;;;;;3.03;100.00;99721.69;5073591;28;20205;-70
2023/12/20 02:02:16;;;;;;;0.60;0.60;;;;;;;3.04;100.00;99714.06;5074927;28;20192;-70
2023/12/20 02:04:43;;;;;;;0.80;0.80;;;;;;;3.03;100.00;99704.81;5074162;28;20649;-70
2023/12/20 02:07:10;;;;;;;0.83;0.83;;;;;;;2.93;100.00;99685.34;5073071;28;20217;-70
2023/12/20 02:09:37;;;;;;;0.50;0.50;;;;;;;3.02;100.00;99692.97;5073228;28;20196;-70
2023/12/20 02:12:05;;;;;;;0.80;0.80;;;;;;;3.04;100.00;99683.69;5071836;28;20583;-70
2023/12/20 02:14:33;;;;;;;0.80;0.80;;;;;;;3.02;100.00;99694.66;5073110;28;20614;-69
2023/12/20 02:16:59;;;;;;;0.53;0.53;;;;;;;3.03;100.00;99696.34;5073222;28;20254;-69
2023/12/20 02:19:26;;;;;;;0.60;0.60;;;;;;;3.01;100.00;99691.25;5072988;28;20191;-69
2023/12/20 02:22:08;;;;;;;0.80;0.80;;;;;;;2.94;100.00;99687.00;5076360;28;20268;-69
2023/12/20 02:24:34;;;;;;;0.50;0.50;;;;;;;2.94;100.00;99676.06;5073786;28;20196;-69
2023/12/20 02:27:01;;;;;;;0.53;0.53;;;;;;;3.01;100.00;99687.88;5073260;28;20745;-69
2023/12/20 02:29:28;;;;;;;1.17;1.17;;;;;;;3.01;100.00;99687.88;5080099;28;20729;-69
2023/12/20 02:31:55;;;;;;;0.60;0.60;;;;;;;3.02;100.00;99687.06;5078059;28;20254;-72
2023/12/20 02:34:21;;;;;;;0.60;0.60;;;;;;;3.00;100.00;99679.47;5074086;28;20558;-71
2023/12/20 02:36:48;;;;;;;0.73;0.73;;;;;;;2.99;100.00;99677.75;5072995;28;20631;-72
2023/12/20 02:39:17;;;;;;;0.67;0.67;;;;;;;2.95;100.00;99683.66;5072594;28;20207;-72
2023/12/20 02:41:44;;;;;;;0.93;0.93;;;;;;;2.89;100.00;99673.50;5073757;28;20192;-72
2023/12/20 02:44:10;;;;;;;0.70;0.70;;;;;;;2.94;100.00;99669.28;5075358;28;20200;-72
2023/12/20 02:46:37;;;;;;;0.87;0.87;;;;;;;2.92;100.00;99678.56;5073921;28;20192;-71
2023/12/20 02:49:04;;;;;;;0.60;0.60;;;;;;;2.98;100.00;99672.69;5072735;28;20688;-72
2023/12/20 02:51:30;;;;;;;0.70;0.70;;;;;;;2.88;100.00;99664.19;5072340;28;20228;-71
2023/12/20 02:53:57;;;;;;;1.00;1.00;;;;;;;2.80;100.00;99652.34;5073893;28;20196;-72
2023/12/20 02:56:27;;;;;;;2.73;0.73;;;;;;;2.77;100.00;99653.19;5075175;28;20204;-72
2023/12/20 02:58:54;;;;;;;1.03;1.03;;;;;;;2.67;100.00;99641.31;5072441;28;20722;-71
2023/12/20 03:01:21;;;;;;;0.70;0.70;;;;;;;2.72;100.00;99659.03;5072552;28;20196;-72
2023/12/20 03:03:47;;;;;;;0.70;0.70;;;;;;;2.67;100.00;99651.44;5073404;28;20204;-72
2023/12/20 03:06:17;;;;;;;0.63;0.63;;;;;;;2.66;100.00;99659.84;5072365;28;20197;-72
2023/12/20 03:08:44;;;;;;;0.63;0.63;;;;;;;2.68;100.00;99652.28;5071913;28;20273;-71
2023/12/20 03:11:11;;;;;;;1.40;0.83;;;;;;;2.67;100.00;99648.91;5072200;28;20261;-71
2023/12/20 03:13:39;;;;;;;1.00;1.00;;;;;;;2.68;100.00;99652.28;5072719;28;20208;-71
2023/12/20 03:16:09;;;;;;;0.80;0.80;;;;;;;2.68;100.00;99648.09;5072162;28;20200;-72
2023/12/20 03:18:36;;;;;;;0.60;0.60;;;;;;;2.56;100.00;99632.81;5071761;28;20245;-71
2023/12/20 03:21:02;;;;;;;0.80;0.80;;;;;;;2.66;100.00;99644.69;5073277;28;20626;-72
2023/12/20 03:23:32;;;;;;;0.83;0.83;;;;;;;2.61;100.00;99646.34;5073304;28;20199;-72
2023/12/20 03:25:58;;;;;;;0.70;0.70;;;;;;;2.60;100.00;99639.59;5071250;28;20611;-72
2023/12/20 03:28:26;;;;;;;0.93;0.93;;;;;;;2.68;100.00;99637.09;5071976;28;20216;-72
2023/12/20 03:30:54;;;;;;;0.73;0.73;;;;;;;2.57;100.00;99626.91;5071623;28;20294;-71
2023/12/20 03:33:20;;;;;;;10.40;1.33;;;;;;;2.62;100.00;99632.84;5075615;28;20197;-71
2023/12/20 03:35:47;;;;;;;0.90;0.90;;;;;;;2.61;100.00;99633.69;5071237;28;20203;-71
2023/12/20 03:38:14;;;;;;;0.73;0.73;;;;;;;2.58;100.00;99626.09;5071177;28;20258;-71
2023/12/20 03:40:41;;;;;;;0.50;0.50;;;;;;;2.57;100.00;99624.38;5072393;28;20196;-71
2023/12/20 03:43:07;;;;;;;0.50;0.50;;;;;;;2.56;100.00;99625.22;5074574;28;20233;-68
2023/12/20 03:45:34;;;;;;;1.00;1.00;;;;;;;2.56;100.00;99622.69;5072623;28;20211;-68
2023/12/20 03:48:02;;;;;;;1.17;1.10;;;;;;;2.54;100.00;99625.22;5072612;28;20220;-69
2023/12/20 03:50:30;;;;;;;0.70;0.70;;;;;;;2.55;100.00;99621.00;5072256;28;20254;-69
2023/12/20 03:52:56;;;;;;;0.60;0.60;;;;;;;2.50;100.00;99617.59;5072391;28;20203;-68
2023/12/20 03:55:23;;;;;;;1.20;1.20;;;;;;;2.52;100.00;99628.59;5072467;28;20284;-68
2023/12/20 03:57:50;;;;;;;1.30;1.30;;;;;;;2.51;100.00;99624.34;5072458;28;20341;-69
2023/12/20 04:00:16;;;;;;;1.00;1.00;;;;;;;2.50;100.00;99627.72;5072165;28;20208;-68
2023/12/20 04:02:43;;;;;;;0.90;0.90;;;;;;;2.49;100.00;99636.13;5072496;28;20204;-69
2023/12/20 04:05:11;;;;;;;0.73;0.73;;;;;;;2.47;100.00;99628.56;5071964;28;20200;-68
2023/12/20 04:07:38;;;;;;;0.70;0.70;;;;;;;2.45;100.00;99624.31;5072042;28;20253;-69
2023/12/20 04:10:06;;;;;;;0.77;0.77;;;;;;;2.38;100.00;99618.38;5072208;28;20295;-68
2023/12/20 04:12:34;;;;;;;0.90;0.90;;;;;;;2.43;100.00;99620.91;5072071;28;20204;-68
2023/12/20 04:15:00;;;;;;;0.97;0.97;;;;;;;2.41;100.00;99607.44;5072109;28;20643;-68
2023/12/20 04:17:27;;;;;;;0.70;0.70;;;;;;;2.36;100.00;99604.03;5072116;28;20207;-68
2023/12/20 04:19:54;;;;;;;0.80;0.80;;;;;;;2.35;100.00;99612.47;5072110;28;20257;-70
2023/12/20 04:22:22;;;;;;;2.33;1.00;;;;;;;2.35;100.00;99620.03;5071816;28;20203;-68
2023/12/20 04:24:49;;;;;;;0.80;0.80;;;;;;;2.35;100.00;99617.50;5071955;28;20208;-68
2023/12/20 04:27:15;;;;;;;0.83;0.83;;;;;;;2.33;100.00;99614.09;5071658;28;20637;-71
2023/12/20 04:29:42;;;;;;;0.77;0.77;;;;;;;2.31;100.00;99618.31;5070377;28;20212;-71
2023/12/20 04:32:09;;;;;;;1.10;1.10;;;;;;;2.28;100.00;99614.09;5073044;28;20196;-71
2023/12/20 04:34:37;;;;;;;0.60;0.60;;;;;;;2.26;100.00;99614.94;5068969;28;20192;-71
2023/12/20 04:37:04;;;;;;;0.60;0.60;;;;;;;2.25;100.00;99618.28;5070805;28;20196;-71
2023/12/20 04:39:33;;;;;;;0.70;0.70;;;;;;;2.21;100.00;99614.88;5070534;28;20245;-71
2023/12/20 04:41:59;;;;;;;0.90;0.90;;;;;;;2.07;100.00;99591.19;5074489;28;20629;-71
2023/12/20 04:44:26;;;;;;;1.37;1.37;;;;;;;2.15;100.00;99599.69;5069113;28;20200;-71
2023/12/20 04:46:53;;;;;;;0.83;0.83;;;;;;;2.13;100.00;99597.97;5072054;28;20257;-71
2023/12/20 04:49:20;;;;;;;1.10;1.10;;;;;;;2.13;100.00;99592.06;5071122;28;20844;-70
2023/12/20 04:51:46;;;;;;;0.70;0.70;;;;;;;2.11;100.00;99592.91;5070444;28;20576;-71
2023/12/20 04:54:13;;;;;;;1.20;1.20;;;;;;;2.11;100.00;99592.91;5078750;28;20261;-71
2023/12/20 04:56:42;;;;;;;0.83;0.83;;;;;;;2.06;100.00;99590.38;5074261;28;20206;-68
2023/12/20 04:59:08;;;;;;;0.60;0.60;;;;;;;2.07;100.00;99592.03;5071570;28;20565;-68
2023/12/20 05:01:35;;;;;;;0.70;0.70;;;;;;;2.07;100.00;99586.13;5071421;28;20215;-68
2023/12/20 05:04:02;;;;;;;0.70;0.70;;;;;;;1.97;100.00;99570.06;5070742;28;20362;-71
2023/12/20 05:06:28;;;;;;;0.60;0.60;;;;;;;2.05;100.00;99583.59;5071954;28;20249;-70
2023/12/20 05:08:55;;;;;;;0.83;0.83;;;;;;;1.87;100.00;99559.88;5070067;28;20777;-70
2023/12/20 05:11:22;;;;;;;0.87;0.87;;;;;;;2.03;100.00;99580.22;5068672;28;20660;-70
2023/12/20 05:13:50;;;;;;;0.97;0.97;;;;;;;2.01;100.00;99571.78;5074870;28;20204;-70
2023/12/20 05:16:17;;;;;;;0.97;0.97;;;;;;;1.98;100.00;99574.28;5070385;28;20692;-70
2023/12/20 05:18:44;;;;;;;0.50;0.50;;;;;;;1.96;100.00;99573.44;5070250;28;20471;-70
2023/12/20 05:21:11;;;;;;;0.90;0.90;;;;;;;1.97;100.00;99575.09;5070386;28;20200;-70
2023/12/20 05:23:38;;;;;;;1.00;1.00;;;;;;;1.98;100.00;99570.91;5071969;28;20200;-70
2023/12/20 05:26:04;;;;;;;0.60;0.60;;;;;;;1.96;100.00;99573.44;5073223;28;20257;-70
2023/12/20 05:28:31;;;;;;;1.10;1.10;;;;;;;1.94;100.00;99554.88;5069855;28;20684;-70
2023/12/20 05:30:59;;;;;;;0.77;0.77;;;;;;;1.92;100.00;99556.53;5071219;28;20200;-70
2023/12/20 05:33:26;;;;;;;0.73;0.73;;;;;;;1.90;100.00;99563.28;5071409;28;20274;-70
2023/12/20 05:35:52;;;;;;;0.70;0.70;;;;;;;1.90;100.00;99553.19;5069948;28;20277;-70
2023/12/20 05:38:19;;;;;;;0.80;0.80;;;;;;;1.88;100.00;99552.28;5070119;28;20193;-70
2023/12/20 05:40:46;;;;;;;0.87;0.87;;;;;;;1.91;100.00;99548.94;5070167;28;20561;-65
2023/12/20 05:43:12;;;;;;;0.80;0.80;;;;;;;1.87;100.00;99548.09;5070698;28;20253;-64
2023/12/20 05:45:39;;;;;;;0.77;0.77;;;;;;;1.73;100.00;99534.50;5072421;28;20192;-64
2023/12/20 05:48:08;;;;;;;1.23;1.23;;;;;;;1.80;100.00;99541.31;5077415;28;20200;-64
2023/12/20 05:50:36;;;;;;;0.90;0.90;;;;;;;1.80;100.00;99541.31;5074076;28;20269;-65
2023/12/20 05:53:03;;;;;;;1.10;1.10;;;;;;;1.79;100.00;99542.13;5074024;28;20202;-65
2023/12/20 05:55:30;;;;;;;0.90;0.90;;;;;;;1.79;100.00;99543.81;5079529;28;20670;-64
2023/12/20 05:57:56;;;;;;;1.13;1.13;;;;;;;1.78;100.00;99537.91;5074216;28;20196;-64
2023/12/20 06:00:23;;;;;;;0.70;0.70;;;;;;;1.76;100.00;99539.59;5074697;28;20231;-64
2023/12/20 06:02:50;;;;;;;1.47;1.47;;;;;;;1.78;100.00;99545.47;5073953;28;20200;-64
2023/12/20 06:05:18;;;;;;;0.63;0.63;;;;;;;1.76;100.00;99534.53;5074711;28;20687;-64
2023/12/20 06:07:45;;;;;;;1.00;1.00;;;;;;;1.77;100.00;99527.78;5073166;28;20233;-64
2023/12/20 06:10:11;;;;;;;0.70;0.70;;;;;;;1.78;100.00;99532.84;5073078;28;20216;-64
2023/12/20 06:12:38;;;;;;;0.87;0.87;;;;;;;1.71;100.00;99505.88;5073177;28;20249;-64
2023/12/20 06:15:05;;;;;;;1.07;1.07;;;;;;;1.91;100.00;99533.78;5075033;28;20210;-64
2023/12/20 06:17:32;;;;;;;0.60;0.60;;;;;;;1.97;100.00;99538.91;5073172;28;20742;-64
2023/12/20 06:19:59;;;;;;;0.70;0.70;;;;;;;1.98;100.00;99536.34;5072242;28;20269;-65
2023/12/20 06:22:27;;;;;;;1.33;1.33;;;;;;;1.97;100.00;99534.66;5073355;28;20253;-65
2023/12/20 06:24:53;;;;;;;0.77;0.77;;;;;;;1.99;100.00;99533.00;5073105;28;20258;-65
2023/12/20 06:27:20;;;;;;;1.20;1.20;;;;;;;1.99;100.00;99533.00;5072174;28;20204;-65
2023/12/20 06:29:47;;;;;;;0.80;0.80;;;;;;;1.96;100.00;99532.97;5072924;28;20215;-65
2023/12/20 06:32:14;;;;;;;1.10;1.10;;;;;;;1.97;100.00;99532.13;5070335;28;20235;-65
2023/12/20 06:34:40;;;;;;;0.57;0.57;;;;;;;1.98;100.00;99526.25;5072772;28;20195;-65
2023/12/20 06:37:07;;;;;;;2.03;2.03;;;;;;;1.97;100.00;99527.06;5068012;28;20207;-64
2023/12/20 06:39:36;;;;;;;1.17;1.17;;;;;;;1.99;100.00;99527.09;5072034;28;20200;-64
2023/12/20 06:42:03;;;;;;;0.80;0.80;;;;;;;1.98;100.00;99536.34;5071562;28;20204;-64
2023/12/20 06:44:31;;;;;;;1.13;1.07;;;;;;;1.99;100.00;99530.47;5070687;28;20642;-64
2023/12/20 06:46:58;;;;;;;0.60;0.60;;;;;;;2.02;100.00;99537.22;5072544;28;20276;-65
2023/12/20 06:49:24;;;;;;;0.80;0.80;;;;;;;2.03;100.00;99538.94;5072267;28;20277;-65
2023/12/20 06:51:51;;;;;;;0.90;0.90;;;;;;;2.04;100.00;99541.44;5072173;28;20285;-65
2023/12/20 06:54:18;;;;;;;1.33;1.33;;;;;;;2.02;100.00;99527.97;5072847;28;20209;-65
2023/12/20 06:56:46;;;;;;;2.07;2.07;;;;;;;2.05;100.00;99527.97;5071327;28;20200;-65
2023/12/20 06:59:13;;;;;;;0.70;0.70;;;;;;;2.07;100.00;99527.97;5076030;28;20654;-64
2023/12/20 07:01:39;;;;;;;1.07;1.07;;;;;;;2.02;100.00;99517.84;5067838;28;20210;-64
2023/12/20 07:04:06;;;;;;;0.97;0.97;;;;;;;2.01;100.00;99500.13;5067855;28;20204;-64
2023/12/20 07:06:33;;;;;;;0.80;0.80;;;;;;;2.08;100.00;99520.41;5069607;28;20277;-67
2023/12/20 07:09:00;;;;;;;0.60;0.60;;;;;;;2.09;100.00;99522.13;5071695;28;20234;-64
2023/12/20 07:11:26;;;;;;;0.60;0.60;;;;;;;2.13;100.00;99518.75;5072343;28;20573;-64
2023/12/20 07:13:54;;;;;;;1.03;1.03;;;;;;;2.18;100.00;99520.47;5072083;28;20258;-65
2023/12/20 07:16:22;;;;;;;2.13;2.03;;;;;;;2.15;100.00;99507.78;5070791;28;20729;-65
2023/12/20 07:18:49;;;;;;;2.23;1.53;;;;;;;2.18;100.00;99507.81;5071315;28;20665;-65
2023/12/20 07:21:15;;;;;;;0.90;0.90;;;;;;;2.24;100.00;99502.78;5073610;28;20195;-66
2023/12/20 07:23:42;;;;;;;0.57;0.57;;;;;;;2.29;100.00;99501.13;5071374;28;20196;-65
2023/12/20 07:26:09;;;;;;;1.07;1.07;;;;;;;2.33;100.00;99498.59;5070666;28;20200;-65
2023/12/20 07:28:36;;;;;;;2.73;0.97;;;;;;;2.34;100.00;99494.41;5070476;28;20545;-65
2023/12/20 07:31:04;;;;;;;2.03;1.10;;;;;;;2.33;100.00;99492.69;5071642;28;20200;-66
2023/12/20 07:33:31;;;;;;;0.90;0.90;;;;;;;2.38;100.00;99483.47;5071969;28;20204;-66
2023/12/20 07:35:58;;;;;;;1.73;1.63;;;;;;;2.44;100.00;99491.06;5069836;28;20233;-66
2023/12/20 07:38:25;;;;;;;1.40;0.83;;;;;;;2.47;100.00;99486.88;5068783;28;20257;-65
2023/12/20 07:40:51;;;;;;;0.60;0.60;;;;;;;2.51;100.00;99487.72;5073328;28;20192;-65
2023/12/20 07:43:18;;;;;;;1.70;1.70;;;;;;;2.56;100.00;99494.47;5071406;28;20204;-64
2023/12/20 07:45:45;;;;;;;1.27;1.27;;;;;;;2.62;100.00;99486.91;5065081;28;20207;-64
2023/12/20 07:48:13;;;;;;;1.00;1.00;;;;;;;2.68;100.00;99481.03;5067893;28;20200;-65
2023/12/20 07:50:40;;;;;;;1.03;1.03;;;;;;;2.76;100.00;99475.97;5064289;28;20707;-65
2023/12/20 07:53:07;;;;;;;0.80;0.80;;;;;;;2.81;100.00;99479.38;5065993;28;20204;-65
2023/12/20 07:55:34;;;;;;;0.80;0.80;;;;;;;2.91;100.00;99474.31;5068755;28;20257;-66
2023/12/20 07:58:01;;;;;;;1.23;1.23;;;;;;;2.96;100.00;99461.66;5068677;28;20208;-67
2023/12/20 08:00:28;;;;;;;0.60;0.60;;;;;;;3.06;100.00;99459.16;5069077;28;20204;-68
2023/12/20 08:02:55;;;;;;;1.03;1.03;;;;;;;3.21;100.00;99462.53;5070468;28;20675;-68
2023/12/20 08:05:23;;;;;;;1.23;1.23;;;;;;;3.29;100.00;99468.44;5069953;28;20208;-67
2023/12/20 08:07:50;;;;;;;0.70;0.70;;;;;;;3.33;100.00;99467.63;5069577;28;20337;-66
2023/12/20 08:10:19;;;;;;;0.93;0.93;;;;;;;3.43;100.00;99461.66;5069880;28;20216;-70
2023/12/20 08:12:45;;;;;;;1.20;1.20;;;;;;;3.49;100.00;99459.97;5066828;28;20204;-67
2023/12/20 08:15:12;;;;;;;0.97;0.97;;;;;;;3.51;100.00;99452.38;5065874;28;20257;-69
2023/12/20 08:17:39;;;;;;;0.70;0.70;;;;;;;3.59;100.00;99453.22;5070321;28;20234;-71
2023/12/20 08:20:07;;;;;;;1.43;1.43;;;;;;;3.61;100.00;99451.53;5069653;28;20195;-69
2023/12/20 08:22:35;;;;;;;0.70;0.70;;;;;;;3.77;100.00;99444.75;5067837;28;20196;-65
2023/12/20 08:25:01;;;;;;;1.37;1.37;;;;;;;3.87;100.00;99457.41;5067366;28;20204;-67
2023/12/20 08:27:28;;;;;;;0.50;0.50;;;;;;;3.93;100.00;99446.38;5066649;28;20199;-67
2023/12/20 08:29:55;;;;;;;0.70;0.70;;;;;;;4.01;100.00;99445.50;5067116;28;20245;-68
2023/12/20 08:32:21;;;;;;;0.80;0.80;;;;;;;4.10;100.00;99434.50;5070465;28;20212;-68
2023/12/20 08:34:48;;;;;;;0.80;0.80;;;;;;;4.09;100.00;99418.44;5069095;28;20204;-68
2023/12/20 08:37:15;;;;;;;0.80;0.80;;;;;;;4.37;100.00;99428.44;5071496;28;20196;-66
2023/12/20 08:39:43;;;;;;;4.53;0.83;;;;;;;4.45;100.00;99426.72;5069978;28;20642;-67
2023/12/20 08:42:10;;;;;;;0.60;0.60;;;;;;;4.59;100.00;99422.41;5070266;28;20208;-66
2023/12/20 08:44:37;;;;;;;0.73;0.73;;;;;;;4.63;100.00;99421.53;5068453;28;20261;-66
2023/12/20 08:47:04;;;;;;;0.60;0.60;;;;;;;4.77;100.00;99414.69;5066218;28;20253;-67
2023/12/20 08:49:31;;;;;;;0.70;0.70;;;;;;;4.89;100.00;99409.50;5066501;28;20216;-67
2023/12/20 08:51:57;;;;;;;1.50;1.50;;;;;;;5.02;100.00;99410.25;5067788;28;20289;-66
2023/12/20 08:54:24;;;;;;;1.13;1.13;;;;;;;5.15;100.00;99410.16;5067318;28;20721;-67
2023/12/20 08:56:52;;;;;;;1.00;1.00;;;;;;;5.22;100.00;99399.09;5068302;28;20257;-66
2023/12/20 08:59:19;;;;;;;1.00;1.00;;;;;;;5.32;100.00;99393.91;5070927;28;20630;-66
2023/12/20 09:01:47;;;;;;;1.67;1.57;;;;;;;5.41;100.00;99384.50;5068147;28;20235;-67
2023/12/20 09:04:14;;;;;;;1.27;1.27;;;;;;;5.59;100.00;99378.41;5069588;28;20208;-67
2023/12/20 09:06:41;;;;;;;1.03;1.03;;;;;;;5.74;100.00;99374.00;5068397;28;20253;-67
2023/12/20 09:09:10;;;;;;;6.17;1.83;;;;;;;5.80;100.00;99373.06;5066845;28;20212;-68
2023/12/20 09:11:36;;;;;;;2.13;2.00;;;;;;;5.95;100.00;99364.44;5070154;28;20204;-68
2023/12/20 09:14:04;;;;;;;0.87;0.87;;;;;;;5.97;100.00;99350.88;5068299;28;20284;-67
2023/12/20 09:16:32;;;;;;;1.60;1.50;;;;;;;6.22;100.00;99357.31;5067818;28;20203;-67
2023/12/20 09:18:59;;;;;;;2.87;2.13;;;;;;;6.26;100.00;99343.69;5065928;28;20684;-68
2023/12/20 09:21:25;;;;;;;1.43;1.33;;;;;;;6.33;100.00;99339.34;5070299;28;20196;-68
2023/12/20 09:23:52;;;;;;;3.90;1.60;;;;;;;6.45;100.00;99334.09;5073306;28;20269;-68
2023/12/20 09:26:20;;;;;;;1.50;1.47;;;;;;;6.52;100.00;99335.69;5066766;28;20749;-68
2023/12/20 09:28:47;;;;;;;2.23;2.07;;;;;;;6.61;100.00;99334.69;5073508;28;20200;-67
2023/12/20 09:31:16;;;;;;;1.37;1.37;;;;;;;6.70;100.00;99324.34;5072408;28;20247;-68
2023/12/20 09:33:42;;;;;;;1.97;1.73;;;;;;;6.77;100.00;99328.50;5071920;28;20623;-68
2023/12/20 09:36:09;;;;;;;2.43;2.23;;;;;;;6.90;100.00;99324.88;5071681;28;20211;-67
2023/12/20 09:38:36;;;;;;;7.60;1.97;;;;;;;6.98;100.00;99314.56;5072314;28;20203;-67
2023/12/20 09:41:04;;;;;;;3.73;2.63;;;;;;;6.94;100.00;99295.94;5072845;28;20200;-67
2023/12/20 09:43:32;;;;;;;2.37;2.17;;;;;;;7.07;100.00;99305.06;5070903;28;20196;-67
2023/12/20 09:46:02;;;;;;;1.97;1.87;;;;;;;7.12;100.00;99305.81;5072155;28;20695;-68
2023/12/20 09:48:32;;;;;;;2.03;1.93;;;;;;;7.18;100.00;99298.03;5074067;28;20208;-68
2023/12/20 09:50:59;;;;;;;1.60;1.50;;;;;;;7.06;100.00;99262.59;5070882;28;20231;-67
2023/12/20 09:53:29;;;;;;;1.83;1.73;;;;;;;7.33;100.00;99282.44;5070977;28;20258;-67
2023/12/20 09:55:58;;;;;;;1.83;1.83;;;;;;;7.23;100.00;99270.78;5069954;28;20199;-66
2023/12/20 09:58:25;;;;;;;2.67;2.47;;;;;;;7.29;100.00;99270.66;5072944;28;20202;-67
2023/12/20 10:00:56;;;;;;;2.00;1.53;;;;;;;7.33;100.00;99273.97;5071876;28;20272;-67
2023/12/20 10:03:26;;;;;;;3.90;2.77;;;;;;;7.40;100.00;99258.50;5072528;28;20208;-66
2023/12/20 10:05:57;;;;;;;2.00;1.93;;;;;;;7.43;100.00;99236.41;5070373;28;20295;-68
2023/12/20 10:08:25;;;;;;;3.10;2.03;;;;;;;7.63;100.00;99255.50;5074074;28;20265;-66
2023/12/20 10:10:52;;;;;;;1.40;1.40;;;;;;;7.71;100.00;99242.59;5068836;28;20642;-67
2023/12/20 10:13:19;;;;;;;1.83;1.83;;;;;;;7.68;100.00;99235.84;5067659;28;20223;-67
2023/12/20 10:15:46;;;;;;;4.77;2.60;;;;;;;7.95;100.00;99247.16;5068577;28;20265;-67
2023/12/20 10:18:13;;;;;;;2.67;1.93;;;;;;;7.89;100.00;99230.28;5070684;28;20196;-67
2023/12/20 10:20:41;;;;;;;2.03;1.87;;;;;;;8.03;100.00;99240.19;5067288;28;20249;-67
2023/12/20 10:23:10;;;;;;;1.50;1.50;;;;;;;7.97;100.00;99207.16;5067915;28;20258;-67
2023/12/20 10:25:37;;;;;;;2.50;2.30;;;;;;;8.15;100.00;99219.47;5064887;28;20200;-68
2023/12/20 10:28:11;;;;;;;4.63;1.93;;;;;;;8.30;100.00;99231.09;5067532;28;20262;-68
2023/12/20 10:30:38;;;;;;;1.80;1.70;;;;;;;8.19;100.00;99210.88;5069371;28;20252;-67
2023/12/20 10:33:07;;;;;;;1.60;1.50;;;;;;;8.30;100.00;99216.56;5066864;28;20546;-67
2023/12/20 10:35:34;;;;;;;1.47;1.37;;;;;;;8.39;100.00;99229.16;5069524;28;20654;-67
2023/12/20 10:38:05;;;;;;;3.50;2.00;;;;;;;8.38;100.00;99219.81;5072613;28;20257;-67
2023/12/20 10:40:36;;;;;;;1.17;1.17;;;;;;;8.35;100.00;99211.38;5070431;28;20199;-68
2023/12/20 10:43:04;;;;;;;1.70;1.60;;;;;;;8.30;100.00;99208.91;5072124;28;20207;-67
2023/12/20 10:45:31;;;;;;;4.77;2.60;;;;;;;8.29;100.00;99197.03;5073277;28;20258;-67
2023/12/20 10:48:00;;;;;;;3.93;3.50;;;;;;;8.23;100.00;99189.50;5070865;28;20269;-67
2023/12/20 10:50:28;;;;;;;3.13;2.83;;;;;;;8.23;100.00;99186.09;5067193;28;20580;-67
2023/12/20 10:52:56;;;;;;;2.67;2.57;;;;;;;8.27;100.00;99182.63;5070819;28;20245;-67
2023/12/20 10:55:23;;;;;;;1.87;1.77;;;;;;;8.30;100.00;99175.72;5071790;28;20200;-66
2023/12/20 10:57:52;;;;;;;2.03;1.67;;;;;;;8.31;100.00;99169.75;5068696;28;20208;-66
2023/12/20 11:00:20;;;;;;;2.83;2.43;;;;;;;8.36;100.00;99165.38;5070186;28;20214;-67
2023/12/20 11:02:46;;;;;;;3.67;2.60;;;;;;;8.30;100.00;99152.72;5067831;28;20204;-67
2023/12/20 11:05:25;;;;;;;2.10;2.00;;;;;;;8.47;100.00;99154.03;5069601;28;20668;-66
2023/12/20 11:07:57;;;;;;;2.30;2.10;;;;;;;8.50;100.00;99143.75;5068803;28;20257;-67
2023/12/20 11:10:29;;;;;;;2.27;2.17;;;;;;;8.57;100.00;99152.91;5071533;28;20266;-67
2023/12/20 11:13:09;;;;;;;3.07;2.87;;;;;;;8.55;100.00;99149.56;5069243;28;20204;-66
2023/12/20 11:15:36;;;;;;;8.33;2.50;;;;;;;8.60;99.12;99140.91;5069310;28;20234;-67
2023/12/20 11:18:06;;;;;;;4.57;3.27;;;;;;;8.55;98.98;99136.81;5067681;28;20204;-67
2023/12/20 11:20:38;;;;;;;6.47;2.17;;;;;;;8.55;99.19;99131.69;5069746;28;20677;-66
2023/12/20 11:23:06;;;;;;;7.93;2.77;;;;;;;8.57;99.08;99132.47;5069536;28;20258;-67
2023/12/20 11:25:47;;;;;;;2.60;2.40;;;;;;;8.65;98.78;99130.56;5072218;28;20687;-67
2023/12/20 11:28:17;;;;;;;2.40;1.83;;;;;;;8.66;99.81;99119.47;5069471;28;20211;-67
2023/12/20 11:30:49;;;;;;;2.60;2.50;;;;;;;8.60;100.00;99105.13;5072415;28;20744;-67
2023/12/20 11:33:16;;;;;;;2.90;2.57;;;;;;;8.75;100.00;99119.22;5070774;28;20195;-67
2023/12/20 11:35:43;;;;;;;2.73;2.10;;;;;;;8.68;100.00;99093.00;5071147;28;20196;-67